sensor_id;sensor_type;location;lat;lon;timestamp;temperature;humidity
59572;DHT22;59406;45.602;11.904;2022-12-18T00:01:32;6.40;83.80
59572;DHT22;59406;45.602;11.904;2022-12-18T00:03:59;6.20;83.60
59572;DHT22;59406;45.602;11.904;2022-12-18T00:06:27;6.30;83.60
59572;DHT22;59406;45.602;11.904;2022-12-18T00:08:54;6.20;83.50
59572;DHT22;59406;45.602;11.904;2022-12-18T00:11:22;6.20;83.70
59572;DHT22;59406;45.602;11.904;2022-12-18T00:13:49;6.20;83.50
59572;DHT22;59406;45.602;11.904;2022-12-18T00:16:18;6.00;83.70
59572;DHT22;59406;45.602;11.904;2022-12-18T00:18:46;6.10;83.50
59572;DHT22;59406;45.602;11.904;2022-12-18T00:21:13;6.00;83.70
59572;DHT22;59406;45.602;11.904;2022-12-18T00:23:41;6.10;83.70
59572;DHT22;59406;45.602;11.904;2022-12-18T00:26:11;6.10;83.60
59572;DHT22;59406;45.602;11.904;2022-12-18T00:28:38;6.20;83.60
59572;DHT22;59406;45.602;11.904;2022-12-18T00:31:06;6.00;83.60
59572;DHT22;59406;45.602;11.904;2022-12-18T00:33:33;6.00;83.50
59572;DHT22;59406;45.602;11.904;2022-12-18T00:38:32;6.00;83.50
59572;DHT22;59406;45.602;11.904;2022-12-18T00:40:58;5.90;83.40
59572;DHT22;59406;45.602;11.904;2022-12-18T00:43:24;6.00;83.60
59572;DHT22;59406;45.602;11.904;2022-12-18T00:45:50;6.00;83.50
59572;DHT22;59406;45.602;11.904;2022-12-18T00:48:16;5.80;83.50
59572;DHT22;59406;45.602;11.904;2022-12-18T00:50:42;5.80;83.50
59572;DHT22;59406;45.602;11.904;2022-12-18T00:53:08;5.70;83.40
59572;DHT22;59406;45.602;11.904;2022-12-18T00:55:34;5.80;83.60
59572;DHT22;59406;45.602;11.904;2022-12-18T00:58:00;5.70;83.70
59572;DHT22;59406;45.602;11.904;2022-12-18T01:00:26;5.60;83.80
59572;DHT22;59406;45.602;11.904;2022-12-18T01:02:52;5.60;83.70
59572;DHT22;59406;45.602;11.904;2022-12-18T01:05:18;5.50;83.70
59572;DHT22;59406;45.602;11.904;2022-12-18T01:07:44;5.50;83.80
59572;DHT22;59406;45.602;11.904;2022-12-18T01:10:12;5.50;83.80
59572;DHT22;59406;45.602;11.904;2022-12-18T01:12:38;5.50;83.80
59572;DHT22;59406;45.602;11.904;2022-12-18T01:15:06;5.30;83.80
59572;DHT22;59406;45.602;11.904;2022-12-18T01:17:32;5.40;83.90
59572;DHT22;59406;45.602;11.904;2022-12-18T01:19:59;5.30;83.90
59572;DHT22;59406;45.602;11.904;2022-12-18T01:22:25;5.40;83.60
59572;DHT22;59406;45.602;11.904;2022-12-18T01:24:51;5.20;83.60
59572;DHT22;59406;45.602;11.904;2022-12-18T01:27:17;5.40;83.70
59572;DHT22;59406;45.602;11.904;2022-12-18T01:29:42;5.10;83.70
59572;DHT22;59406;45.602;11.904;2022-12-18T01:32:09;5.10;83.60
59572;DHT22;59406;45.602;11.904;2022-12-18T01:34:36;5.00;83.70
59572;DHT22;59406;45.602;11.904;2022-12-18T01:37:05;5.10;83.80
59572;DHT22;59406;45.602;11.904;2022-12-18T01:39:32;5.20;83.60
59572;DHT22;59406;45.602;11.904;2022-12-18T01:41:59;5.00;83.70
59572;DHT22;59406;45.602;11.904;2022-12-18T01:45:01;5.10;83.80
59572;DHT22;59406;45.602;11.904;2022-12-18T01:49:57;4.90;83.90
59572;DHT22;59406;45.602;11.904;2022-12-18T01:52:27;5.00;84.00
59572;DHT22;59406;45.602;11.904;2022-12-18T01:54:54;4.80;84.00
59572;DHT22;59406;45.602;11.904;2022-12-18T01:57:22;4.80;84.10
59572;DHT22;59406;45.602;11.904;2022-12-18T01:59:52;4.80;84.10
59572;DHT22;59406;45.602;11.904;2022-12-18T02:02:19;4.90;84.10
59572;DHT22;59406;45.602;11.904;2022-12-18T02:04:46;4.70;84.20
59572;DHT22;59406;45.602;11.904;2022-12-18T02:07:24;4.70;84.30
59572;DHT22;59406;45.602;11.904;2022-12-18T02:10:03;4.60;84.20
59572;DHT22;59406;45.602;11.904;2022-12-18T02:12:50;4.60;84.20
59572;DHT22;59406;45.602;11.904;2022-12-18T02:16:24;4.50;84.10
59572;DHT22;59406;45.602;11.904;2022-12-18T02:18:21;4.60;84.10
59572;DHT22;59406;45.602;11.904;2022-12-18T02:20:54;4.50;84.30
59572;DHT22;59406;45.602;11.904;2022-12-18T02:23:56;4.40;84.20
59572;DHT22;59406;45.602;11.904;2022-12-18T02:28:59;4.50;84.40
59572;DHT22;59406;45.602;11.904;2022-12-18T02:31:30;4.60;84.30
59572;DHT22;59406;45.602;11.904;2022-12-18T02:34:00;4.40;84.30
59572;DHT22;59406;45.602;11.904;2022-12-18T02:36:28;4.30;84.40
59572;DHT22;59406;45.602;11.904;2022-12-18T02:38:56;4.30;84.50
59572;DHT22;59406;45.602;11.904;2022-12-18T02:41:22;4.40;84.60
59572;DHT22;59406;45.602;11.904;2022-12-18T02:43:55;4.40;84.60
59572;DHT22;59406;45.602;11.904;2022-12-18T02:46:29;4.40;84.50
59572;DHT22;59406;45.602;11.904;2022-12-18T02:57:31;4.30;84.50
59572;DHT22;59406;45.602;11.904;2022-12-18T03:00:14;4.40;84.30
59572;DHT22;59406;45.602;11.904;2022-12-18T03:02:48;4.30;84.50
59572;DHT22;59406;45.602;11.904;2022-12-18T03:05:21;4.30;84.40
59572;DHT22;59406;45.602;11.904;2022-12-18T03:08:15;4.30;84.30
59572;DHT22;59406;45.602;11.904;2022-12-18T03:10:58;4.20;84.50
59572;DHT22;59406;45.602;11.904;2022-12-18T03:15:59;4.40;84.40
59572;DHT22;59406;45.602;11.904;2022-12-18T03:18:30;4.40;84.30
59572;DHT22;59406;45.602;11.904;2022-12-18T03:21:02;4.40;84.20
59572;DHT22;59406;45.602;11.904;2022-12-18T03:23:34;4.30;84.10
59572;DHT22;59406;45.602;11.904;2022-12-18T03:26:04;4.40;84.30
59572;DHT22;59406;45.602;11.904;2022-12-18T03:28:35;4.40;84.20
59572;DHT22;59406;45.602;11.904;2022-12-18T03:31:02;4.20;84.20
59572;DHT22;59406;45.602;11.904;2022-12-18T03:33:46;4.20;84.20
59572;DHT22;59406;45.602;11.904;2022-12-18T03:36:13;4.20;84.20
59572;DHT22;59406;45.602;11.904;2022-12-18T03:38:40;4.50;84.10
59572;DHT22;59406;45.602;11.904;2022-12-18T03:44:00;4.10;84.30
59572;DHT22;59406;45.602;11.904;2022-12-18T03:55:18;4.00;84.10
59572;DHT22;59406;45.602;11.904;2022-12-18T03:57:46;3.90;84.20
59572;DHT22;59406;45.602;11.904;2022-12-18T04:00:15;4.00;84.20
59572;DHT22;59406;45.602;11.904;2022-12-18T04:02:48;4.10;84.10
59572;DHT22;59406;45.602;11.904;2022-12-18T04:05:15;4.10;84.20
59572;DHT22;59406;45.602;11.904;2022-12-18T04:07:43;4.00;84.30
59572;DHT22;59406;45.602;11.904;2022-12-18T04:10:11;4.10;84.30
59572;DHT22;59406;45.602;11.904;2022-12-18T04:12:38;4.00;84.10
59572;DHT22;59406;45.602;11.904;2022-12-18T04:15:04;4.00;84.30
59572;DHT22;59406;45.602;11.904;2022-12-18T04:17:30;3.80;84.20
59572;DHT22;59406;45.602;11.904;2022-12-18T04:19:56;3.80;84.20
59572;DHT22;59406;45.602;11.904;2022-12-18T04:22:22;3.70;84.50
59572;DHT22;59406;45.602;11.904;2022-12-18T04:24:48;3.60;84.50
59572;DHT22;59406;45.602;11.904;2022-12-18T04:27:13;3.60;84.50
59572;DHT22;59406;45.602;11.904;2022-12-18T04:29:39;3.70;84.60
59572;DHT22;59406;45.602;11.904;2022-12-18T04:32:05;3.60;84.60
59572;DHT22;59406;45.602;11.904;2022-12-18T04:34:31;3.50;84.70
59572;DHT22;59406;45.602;11.904;2022-12-18T04:36:57;3.50;84.70
59572;DHT22;59406;45.602;11.904;2022-12-18T04:39:23;3.50;84.80
59572;DHT22;59406;45.602;11.904;2022-12-18T04:41:49;3.30;84.70
59572;DHT22;59406;45.602;11.904;2022-12-18T04:44:14;3.40;84.80
59572;DHT22;59406;45.602;11.904;2022-12-18T04:46:40;3.40;84.80
59572;DHT22;59406;45.602;11.904;2022-12-18T04:49:06;3.40;84.70
59572;DHT22;59406;45.602;11.904;2022-12-18T04:51:32;3.40;84.70
59572;DHT22;59406;45.602;11.904;2022-12-18T04:53:58;3.30;84.70
59572;DHT22;59406;45.602;11.904;2022-12-18T04:56:24;3.20;84.90
59572;DHT22;59406;45.602;11.904;2022-12-18T04:58:49;3.50;84.80
59572;DHT22;59406;45.602;11.904;2022-12-18T05:01:17;3.50;84.70
59572;DHT22;59406;45.602;11.904;2022-12-18T05:03:43;3.40;84.80
59572;DHT22;59406;45.602;11.904;2022-12-18T05:06:09;3.70;84.70
59572;DHT22;59406;45.602;11.904;2022-12-18T05:08:35;3.50;84.60
59572;DHT22;59406;45.602;11.904;2022-12-18T05:11:13;3.70;84.70
59572;DHT22;59406;45.602;11.904;2022-12-18T05:13:42;3.60;84.40
59572;DHT22;59406;45.602;11.904;2022-12-18T05:16:08;3.50;84.40
59572;DHT22;59406;45.602;11.904;2022-12-18T05:18:35;3.80;84.50
59572;DHT22;59406;45.602;11.904;2022-12-18T05:21:01;3.60;84.40
59572;DHT22;59406;45.602;11.904;2022-12-18T05:23:27;3.70;84.30
59572;DHT22;59406;45.602;11.904;2022-12-18T05:25:55;3.40;84.50
59572;DHT22;59406;45.602;11.904;2022-12-18T05:28:22;3.50;84.50
59572;DHT22;59406;45.602;11.904;2022-12-18T05:30:50;3.50;84.40
59572;DHT22;59406;45.602;11.904;2022-12-18T05:33:17;3.70;84.40
59572;DHT22;59406;45.602;11.904;2022-12-18T05:35:43;3.60;84.50
59572;DHT22;59406;45.602;11.904;2022-12-18T05:38:09;3.80;84.40
59572;DHT22;59406;45.602;11.904;2022-12-18T05:40:35;3.60;84.50
59572;DHT22;59406;45.602;11.904;2022-12-18T05:43:02;3.70;84.50
59572;DHT22;59406;45.602;11.904;2022-12-18T05:45:31;3.80;84.40
59572;DHT22;59406;45.602;11.904;2022-12-18T05:47:56;3.70;84.50
59572;DHT22;59406;45.602;11.904;2022-12-18T05:50:22;3.70;84.50
59572;DHT22;59406;45.602;11.904;2022-12-18T05:52:48;3.60;84.40
59572;DHT22;59406;45.602;11.904;2022-12-18T05:55:14;3.60;84.50
59572;DHT22;59406;45.602;11.904;2022-12-18T05:57:40;3.80;84.40
59572;DHT22;59406;45.602;11.904;2022-12-18T06:00:07;3.70;84.60
59572;DHT22;59406;45.602;11.904;2022-12-18T06:02:33;3.60;84.70
59572;DHT22;59406;45.602;11.904;2022-12-18T06:04:59;3.50;84.70
59572;DHT22;59406;45.602;11.904;2022-12-18T06:07:25;3.70;84.80
59572;DHT22;59406;45.602;11.904;2022-12-18T06:09:51;3.40;84.70
59572;DHT22;59406;45.602;11.904;2022-12-18T06:12:17;3.60;84.80
59572;DHT22;59406;45.602;11.904;2022-12-18T06:14:43;3.60;84.90
59572;DHT22;59406;45.602;11.904;2022-12-18T06:17:09;3.50;84.90
59572;DHT22;59406;45.602;11.904;2022-12-18T06:19:35;3.60;84.80
59572;DHT22;59406;45.602;11.904;2022-12-18T06:22:01;3.60;84.80
59572;DHT22;59406;45.602;11.904;2022-12-18T06:24:27;3.30;84.90
59572;DHT22;59406;45.602;11.904;2022-12-18T06:26:52;3.50;84.80
59572;DHT22;59406;45.602;11.904;2022-12-18T06:29:18;3.80;84.90
59572;DHT22;59406;45.602;11.904;2022-12-18T06:31:44;3.50;84.70
59572;DHT22;59406;45.602;11.904;2022-12-18T06:34:10;3.70;84.90
59572;DHT22;59406;45.602;11.904;2022-12-18T06:36:36;3.50;84.70
59572;DHT22;59406;45.602;11.904;2022-12-18T06:39:02;3.60;84.70
59572;DHT22;59406;45.602;11.904;2022-12-18T06:41:27;3.70;84.70
59572;DHT22;59406;45.602;11.904;2022-12-18T06:43:53;3.80;84.70
59572;DHT22;59406;45.602;11.904;2022-12-18T06:46:19;3.90;84.60
59572;DHT22;59406;45.602;11.904;2022-12-18T06:48:49;3.70;84.70
59572;DHT22;59406;45.602;11.904;2022-12-18T06:51:17;3.60;84.70
59572;DHT22;59406;45.602;11.904;2022-12-18T06:53:43;3.50;84.60
59572;DHT22;59406;45.602;11.904;2022-12-18T06:56:09;3.40;84.70
59572;DHT22;59406;45.602;11.904;2022-12-18T06:58:34;3.70;84.80
59572;DHT22;59406;45.602;11.904;2022-12-18T07:01:02;3.50;84.80
59572;DHT22;59406;45.602;11.904;2022-12-18T07:03:29;3.70;84.70
59572;DHT22;59406;45.602;11.904;2022-12-18T07:05:55;3.50;84.80
59572;DHT22;59406;45.602;11.904;2022-12-18T07:08:21;3.80;84.80
59572;DHT22;59406;45.602;11.904;2022-12-18T07:10:47;3.90;84.70
59572;DHT22;59406;45.602;11.904;2022-12-18T07:13:16;3.80;84.50
59572;DHT22;59406;45.602;11.904;2022-12-18T07:15:42;3.80;84.50
59572;DHT22;59406;45.602;11.904;2022-12-18T07:18:08;3.90;84.30
59572;DHT22;59406;45.602;11.904;2022-12-18T07:20:34;3.90;84.20
59572;DHT22;59406;45.602;11.904;2022-12-18T07:23:02;3.90;84.50
59572;DHT22;59406;45.602;11.904;2022-12-18T07:25:29;3.90;84.40
59572;DHT22;59406;45.602;11.904;2022-12-18T07:27:55;4.10;84.30
59572;DHT22;59406;45.602;11.904;2022-12-18T07:30:21;4.20;84.20
59572;DHT22;59406;45.602;11.904;2022-12-18T07:32:46;4.10;84.30
59572;DHT22;59406;45.602;11.904;2022-12-18T07:35:12;4.20;84.00
59572;DHT22;59406;45.602;11.904;2022-12-18T07:37:38;4.30;84.10
59572;DHT22;59406;45.602;11.904;2022-12-18T07:40:05;4.50;84.10
59572;DHT22;59406;45.602;11.904;2022-12-18T07:42:31;4.40;83.80
59572;DHT22;59406;45.602;11.904;2022-12-18T07:45:00;4.80;83.80
59572;DHT22;59406;45.602;11.904;2022-12-18T07:47:27;4.70;83.60
59572;DHT22;59406;45.602;11.904;2022-12-18T07:49:53;5.00;83.70
59572;DHT22;59406;45.602;11.904;2022-12-18T07:52:19;5.00;83.50
59572;DHT22;59406;45.602;11.904;2022-12-18T07:54:46;5.00;83.50
59572;DHT22;59406;45.602;11.904;2022-12-18T07:57:14;4.90;83.40
59572;DHT22;59406;45.602;11.904;2022-12-18T07:59:41;5.30;83.20
59572;DHT22;59406;45.602;11.904;2022-12-18T08:02:07;5.20;83.20
59572;DHT22;59406;45.602;11.904;2022-12-18T08:04:36;5.50;83.10
59572;DHT22;59406;45.602;11.904;2022-12-18T08:07:02;6.20;82.50
59572;DHT22;59406;45.602;11.904;2022-12-18T08:09:27;6.50;81.90
59572;DHT22;59406;45.602;11.904;2022-12-18T08:11:53;6.50;81.10
59572;DHT22;59406;45.602;11.904;2022-12-18T08:14:19;6.60;81.70
59572;DHT22;59406;45.602;11.904;2022-12-18T08:16:46;6.50;81.40
59572;DHT22;59406;45.602;11.904;2022-12-18T08:19:12;6.50;81.50
59572;DHT22;59406;45.602;11.904;2022-12-18T08:21:38;6.60;81.60
59572;DHT22;59406;45.602;11.904;2022-12-18T08:24:08;7.00;81.60
59572;DHT22;59406;45.602;11.904;2022-12-18T08:26:34;7.20;81.20
59572;DHT22;59406;45.602;11.904;2022-12-18T08:29:00;7.80;80.70
59572;DHT22;59406;45.602;11.904;2022-12-18T08:31:27;8.30;80.20
59572;DHT22;59406;45.602;11.904;2022-12-18T08:33:54;8.60;78.60
59572;DHT22;59406;45.602;11.904;2022-12-18T08:36:21;8.80;79.40
59572;DHT22;59406;45.602;11.904;2022-12-18T08:38:48;9.50;79.20
59572;DHT22;59406;45.602;11.904;2022-12-18T08:41:16;10.10;77.80
59572;DHT22;59406;45.602;11.904;2022-12-18T08:43:42;10.90;77.20
59572;DHT22;59406;45.602;11.904;2022-12-18T08:46:30;11.80;76.60
59572;DHT22;59406;45.602;11.904;2022-12-18T08:48:57;12.40;75.90
59572;DHT22;59406;45.602;11.904;2022-12-18T08:51:23;12.60;75.00
59572;DHT22;59406;45.602;11.904;2022-12-18T08:53:49;12.50;75.70
59572;DHT22;59406;45.602;11.904;2022-12-18T08:56:15;12.40;74.70
59572;DHT22;59406;45.602;11.904;2022-12-18T08:58:42;12.10;75.80
59572;DHT22;59406;45.602;11.904;2022-12-18T09:01:10;12.00;75.50
59572;DHT22;59406;45.602;11.904;2022-12-18T09:03:37;12.40;76.50
59572;DHT22;59406;45.602;11.904;2022-12-18T09:06:03;12.60;76.30
59572;DHT22;59406;45.602;11.904;2022-12-18T09:08:29;12.70;75.00
59572;DHT22;59406;45.602;11.904;2022-12-18T09:10:55;12.90;74.50
59572;DHT22;59406;45.602;11.904;2022-12-18T09:13:22;12.70;74.80
59572;DHT22;59406;45.602;11.904;2022-12-18T09:15:50;11.60;76.10
59572;DHT22;59406;45.602;11.904;2022-12-18T09:18:18;11.20;75.60
59572;DHT22;59406;45.602;11.904;2022-12-18T09:20:45;11.30;76.70
59572;DHT22;59406;45.602;11.904;2022-12-18T09:23:11;11.80;76.90
59572;DHT22;59406;45.602;11.904;2022-12-18T09:25:38;12.60;76.20
59572;DHT22;59406;45.602;11.904;2022-12-18T09:28:12;13.00;74.80
59572;DHT22;59406;45.602;11.904;2022-12-18T09:30:48;13.40;74.20
59572;DHT22;59406;45.602;11.904;2022-12-18T09:33:15;13.90;74.30
59572;DHT22;59406;45.602;11.904;2022-12-18T09:35:42;14.00;72.60
59572;DHT22;59406;45.602;11.904;2022-12-18T09:38:13;13.80;72.90
59572;DHT22;59406;45.602;11.904;2022-12-18T09:40:46;13.90;72.40
59572;DHT22;59406;45.602;11.904;2022-12-18T09:43:20;13.80;72.40
59572;DHT22;59406;45.602;11.904;2022-12-18T09:45:51;13.90;72.00
59572;DHT22;59406;45.602;11.904;2022-12-18T09:48:23;13.70;70.20
59572;DHT22;59406;45.602;11.904;2022-12-18T09:50:52;13.10;72.90
59572;DHT22;59406;45.602;11.904;2022-12-18T09:53:24;13.20;71.60
59572;DHT22;59406;45.602;11.904;2022-12-18T09:55:52;13.10;72.10
59572;DHT22;59406;45.602;11.904;2022-12-18T09:58:35;13.00;72.40
59572;DHT22;59406;45.602;11.904;2022-12-18T10:01:18;13.20;70.70
59572;DHT22;59406;45.602;11.904;2022-12-18T10:03:45;12.90;70.60
59572;DHT22;59406;45.602;11.904;2022-12-18T10:09:25;12.70;72.00
59572;DHT22;59406;45.602;11.904;2022-12-18T10:17:44;12.60;72.40
59572;DHT22;59406;45.602;11.904;2022-12-18T10:27:52;13.40;71.20
59572;DHT22;59406;45.602;11.904;2022-12-18T10:30:21;13.30;71.10
59572;DHT22;59406;45.602;11.904;2022-12-18T10:32:48;13.00;71.50
59572;DHT22;59406;45.602;11.904;2022-12-18T10:35:25;12.70;71.00
59572;DHT22;59406;45.602;11.904;2022-12-18T10:43:33;11.50;72.70
59572;DHT22;59406;45.602;11.904;2022-12-18T10:48:33;12.10;73.50
59572;DHT22;59406;45.602;11.904;2022-12-18T10:51:00;12.10;73.80
59572;DHT22;59406;45.602;11.904;2022-12-18T10:53:28;12.70;72.70
59572;DHT22;59406;45.602;11.904;2022-12-18T10:55:58;13.00;70.80
59572;DHT22;59406;45.602;11.904;2022-12-18T10:58:30;13.00;71.40
59572;DHT22;59406;45.602;11.904;2022-12-18T11:01:11;12.40;71.60
59572;DHT22;59406;45.602;11.904;2022-12-18T11:06:06;11.50;72.90
59572;DHT22;59406;45.602;11.904;2022-12-18T11:08:33;11.60;72.80
59572;DHT22;59406;45.602;11.904;2022-12-18T11:10:59;11.70;73.40
59572;DHT22;59406;45.602;11.904;2022-12-18T11:13:29;12.70;71.50
59572;DHT22;59406;45.602;11.904;2022-12-18T11:15:55;13.10;71.40
59572;DHT22;59406;45.602;11.904;2022-12-18T11:18:33;13.10;71.60
59572;DHT22;59406;45.602;11.904;2022-12-18T11:21:06;13.40;70.50
59572;DHT22;59406;45.602;11.904;2022-12-18T11:23:33;13.20;70.50
59572;DHT22;59406;45.602;11.904;2022-12-18T11:26:04;12.70;71.30
59572;DHT22;59406;45.602;11.904;2022-12-18T11:28:44;13.20;71.40
59572;DHT22;59406;45.602;11.904;2022-12-18T11:31:26;14.00;70.30
59572;DHT22;59406;45.602;11.904;2022-12-18T11:34:27;15.00;69.80
59572;DHT22;59406;45.602;11.904;2022-12-18T11:36:54;15.80;66.10
59572;DHT22;59406;45.602;11.904;2022-12-18T11:39:39;16.10;67.00
59572;DHT22;59406;45.602;11.904;2022-12-18T11:42:25;16.10;65.70
59572;DHT22;59406;45.602;11.904;2022-12-18T11:45:30;16.10;66.70
59572;DHT22;59406;45.602;11.904;2022-12-18T11:48:32;16.40;65.80
59572;DHT22;59406;45.602;11.904;2022-12-18T11:51:01;16.90;65.60
59572;DHT22;59406;45.602;11.904;2022-12-18T11:53:30;17.50;66.40
59572;DHT22;59406;45.602;11.904;2022-12-18T11:58:50;19.30;64.10
59572;DHT22;59406;45.602;11.904;2022-12-18T12:04:26;20.30;55.70
59572;DHT22;59406;45.602;11.904;2022-12-18T12:07:10;20.30;54.40
59572;DHT22;59406;45.602;11.904;2022-12-18T12:15:17;20.70;56.40
59572;DHT22;59406;45.602;11.904;2022-12-18T12:34:35;21.90;52.60
59572;DHT22;59406;45.602;11.904;2022-12-18T12:39:53;20.60;50.00
59572;DHT22;59406;45.602;11.904;2022-12-18T12:42:30;19.40;53.60
59572;DHT22;59406;45.602;11.904;2022-12-18T12:45:25;18.60;56.60
59572;DHT22;59406;45.602;11.904;2022-12-18T12:47:54;18.50;56.70
59572;DHT22;59406;45.602;11.904;2022-12-18T12:50:22;18.40;58.30
59572;DHT22;59406;45.602;11.904;2022-12-18T12:52:54;18.60;56.70
59572;DHT22;59406;45.602;11.904;2022-12-18T12:55:26;18.40;56.70
59572;DHT22;59406;45.602;11.904;2022-12-18T13:09:03;19.70;56.50
59572;DHT22;59406;45.602;11.904;2022-12-18T13:11:41;20.60;51.80
59572;DHT22;59406;45.602;11.904;2022-12-18T13:19:44;22.30;46.10
59572;DHT22;59406;45.602;11.904;2022-12-18T13:22:51;21.70;51.50
59572;DHT22;59406;45.602;11.904;2022-12-18T13:28:04;20.50;50.40
59572;DHT22;59406;45.602;11.904;2022-12-18T13:43:39;22.40;48.30
59572;DHT22;59406;45.602;11.904;2022-12-18T13:49:04;22.20;47.00
59572;DHT22;59406;45.602;11.904;2022-12-18T13:51:34;21.80;44.90
59572;DHT22;59406;45.602;11.904;2022-12-18T13:56:47;21.40;50.30
59572;DHT22;59406;45.602;11.904;2022-12-18T14:02:00;20.20;51.90
59572;DHT22;59406;45.602;11.904;2022-12-18T14:04:34;20.50;53.00
59572;DHT22;59406;45.602;11.904;2022-12-18T14:07:15;21.60;48.50
59572;DHT22;59406;45.602;11.904;2022-12-18T14:09:43;21.70;47.70
59572;DHT22;59406;45.602;11.904;2022-12-18T14:12:34;21.20;48.30
59572;DHT22;59406;45.602;11.904;2022-12-18T14:17:53;20.80;49.80
59572;DHT22;59406;45.602;11.904;2022-12-18T14:20:20;20.30;52.30
59572;DHT22;59406;45.602;11.904;2022-12-18T14:22:48;20.70;51.20
59572;DHT22;59406;45.602;11.904;2022-12-18T14:25:18;20.80;51.10
59572;DHT22;59406;45.602;11.904;2022-12-18T14:27:48;20.40;51.00
59572;DHT22;59406;45.602;11.904;2022-12-18T14:33:03;19.70;50.60
59572;DHT22;59406;45.602;11.904;2022-12-18T14:35:30;20.20;50.60
59572;DHT22;59406;45.602;11.904;2022-12-18T14:41:14;20.00;47.90
59572;DHT22;59406;45.602;11.904;2022-12-18T14:43:42;19.40;49.00
59572;DHT22;59406;45.602;11.904;2022-12-18T14:46:32;18.70;53.30
59572;DHT22;59406;45.602;11.904;2022-12-18T14:49:24;17.80;53.30
59572;DHT22;59406;45.602;11.904;2022-12-18T14:52:34;17.00;63.60
59572;DHT22;59406;45.602;11.904;2022-12-18T14:54:37;16.60;64.10
59572;DHT22;59406;45.602;11.904;2022-12-18T14:57:22;16.00;64.40
59572;DHT22;59406;45.602;11.904;2022-12-18T14:59:49;15.60;64.60
59572;DHT22;59406;45.602;11.904;2022-12-18T15:02:23;15.30;66.10
59572;DHT22;59406;45.602;11.904;2022-12-18T15:07:48;14.50;66.80
59572;DHT22;59406;45.602;11.904;2022-12-18T15:10:22;14.00;67.60
59572;DHT22;59406;45.602;11.904;2022-12-18T15:18:00;12.90;68.70
59572;DHT22;59406;45.602;11.904;2022-12-18T15:20:27;12.70;70.50
59572;DHT22;59406;45.602;11.904;2022-12-18T15:22:53;12.40;70.50
59572;DHT22;59406;45.602;11.904;2022-12-18T15:25:34;11.90;71.00
59572;DHT22;59406;45.602;11.904;2022-12-18T15:28:03;11.60;71.50
59572;DHT22;59406;45.602;11.904;2022-12-18T15:30:29;11.40;71.90
59572;DHT22;59406;45.602;11.904;2022-12-18T15:33:25;11.00;72.10
59572;DHT22;59406;45.602;11.904;2022-12-18T15:36:05;11.00;72.20
59572;DHT22;59406;45.602;11.904;2022-12-18T15:38:31;10.70;72.60
59572;DHT22;59406;45.602;11.904;2022-12-18T15:40:57;10.40;72.80
59572;DHT22;59406;45.602;11.904;2022-12-18T15:43:24;10.30;73.10
59572;DHT22;59406;45.602;11.904;2022-12-18T15:46:09;10.20;73.10
59572;DHT22;59406;45.602;11.904;2022-12-18T15:48:41;9.80;73.40
59572;DHT22;59406;45.602;11.904;2022-12-18T15:51:17;9.80;73.60
59572;DHT22;59406;45.602;11.904;2022-12-18T15:53:44;9.70;74.10
59572;DHT22;59406;45.602;11.904;2022-12-18T15:56:14;9.40;74.40
59572;DHT22;59406;45.602;11.904;2022-12-18T15:58:59;9.30;74.70
59572;DHT22;59406;45.602;11.904;2022-12-18T16:01:28;9.30;74.90
59572;DHT22;59406;45.602;11.904;2022-12-18T16:03:55;9.20;74.90
59572;DHT22;59406;45.602;11.904;2022-12-18T16:06:22;9.00;75.10
59572;DHT22;59406;45.602;11.904;2022-12-18T16:08:48;8.70;75.20
59572;DHT22;59406;45.602;11.904;2022-12-18T16:11:25;8.70;75.40
59572;DHT22;59406;45.602;11.904;2022-12-18T16:14:25;8.60;76.00
59572;DHT22;59406;45.602;11.904;2022-12-18T16:16:57;8.60;75.80
59572;DHT22;59406;45.602;11.904;2022-12-18T16:19:24;8.50;75.60
59572;DHT22;59406;45.602;11.904;2022-12-18T16:21:51;8.40;75.80
59572;DHT22;59406;45.602;11.904;2022-12-18T16:24:20;8.10;76.10
59572;DHT22;59406;45.602;11.904;2022-12-18T16:26:48;8.00;76.60
59572;DHT22;59406;45.602;11.904;2022-12-18T16:29:14;7.70;76.80
59572;DHT22;59406;45.602;11.904;2022-12-18T16:31:40;7.80;77.00
59572;DHT22;59406;45.602;11.904;2022-12-18T16:36:41;7.30;78.10
59572;DHT22;59406;45.602;11.904;2022-12-18T16:39:07;7.20;78.20
59572;DHT22;59406;45.602;11.904;2022-12-18T16:41:33;7.20;78.30
59572;DHT22;59406;45.602;11.904;2022-12-18T16:43:59;7.20;78.10
59572;DHT22;59406;45.602;11.904;2022-12-18T16:46:25;7.30;78.70
59572;DHT22;59406;45.602;11.904;2022-12-18T16:48:51;7.00;78.20
59572;DHT22;59406;45.602;11.904;2022-12-18T16:51:17;7.00;78.60
59572;DHT22;59406;45.602;11.904;2022-12-18T16:53:43;6.80;78.70
59572;DHT22;59406;45.602;11.904;2022-12-18T16:56:09;6.90;78.70
59572;DHT22;59406;45.602;11.904;2022-12-18T16:58:35;6.80;78.80
59572;DHT22;59406;45.602;11.904;2022-12-18T17:01:06;6.70;79.00
59572;DHT22;59406;45.602;11.904;2022-12-18T17:03:32;6.60;79.10
59572;DHT22;59406;45.602;11.904;2022-12-18T17:06:04;6.40;78.90
59572;DHT22;59406;45.602;11.904;2022-12-18T17:08:30;6.40;78.90
59572;DHT22;59406;45.602;11.904;2022-12-18T17:11:03;6.40;79.20
59572;DHT22;59406;45.602;11.904;2022-12-18T17:13:29;6.40;79.00
59572;DHT22;59406;45.602;11.904;2022-12-18T17:15:59;6.10;79.00
59572;DHT22;59406;45.602;11.904;2022-12-18T17:18:26;6.00;78.90
59572;DHT22;59406;45.602;11.904;2022-12-18T17:20:54;5.90;79.40
59572;DHT22;59406;45.602;11.904;2022-12-18T17:23:23;5.90;79.10
59572;DHT22;59406;45.602;11.904;2022-12-18T17:25:49;5.70;79.30
59572;DHT22;59406;45.602;11.904;2022-12-18T17:28:14;5.90;78.80
59572;DHT22;59406;45.602;11.904;2022-12-18T17:30:40;5.90;79.00
59572;DHT22;59406;45.602;11.904;2022-12-18T17:33:06;5.70;79.40
59572;DHT22;59406;45.602;11.904;2022-12-18T17:35:32;5.40;79.70
59572;DHT22;59406;45.602;11.904;2022-12-18T17:37:59;5.60;79.70
59572;DHT22;59406;45.602;11.904;2022-12-18T17:40:25;5.40;79.70
59572;DHT22;59406;45.602;11.904;2022-12-18T17:42:52;5.20;80.30
59572;DHT22;59406;45.602;11.904;2022-12-18T17:45:18;5.20;80.00
59572;DHT22;59406;45.602;11.904;2022-12-18T17:47:44;5.10;80.40
59572;DHT22;59406;45.602;11.904;2022-12-18T17:50:10;5.20;80.60
59572;DHT22;59406;45.602;11.904;2022-12-18T17:52:36;5.00;80.70
59572;DHT22;59406;45.602;11.904;2022-12-18T17:55:02;4.80;80.70
59572;DHT22;59406;45.602;11.904;2022-12-18T17:57:28;4.60;81.40
59572;DHT22;59406;45.602;11.904;2022-12-18T17:59:54;4.60;81.20
59572;DHT22;59406;45.602;11.904;2022-12-18T18:02:20;4.80;81.30
59572;DHT22;59406;45.602;11.904;2022-12-18T18:04:46;4.50;81.50
59572;DHT22;59406;45.602;11.904;2022-12-18T18:07:12;4.60;81.20
59572;DHT22;59406;45.602;11.904;2022-12-18T18:09:38;4.40;81.20